Stephenville

Airport
ICAO code: 
CYJT
IATA Code: 
YJT
Summary
ICAO Region: 
NAM
Territory: 
Location: 
Stephenville, Newfoundland,
Serving: 
Stephenville
Elevation: 
80 ft
Coordinates: 
Aerial View: 
48° 32' 43.296" N, 58° 32' 58.898" W
Metar
Observation
CYJT 271100Z 10009KT 15SM SCT030 BKN110 10/07 A2938 RMK SC3AC4 SLP952 DENSITY ALT 100FT
Station
Stephenville, Nfld.
Date/Time
2021-11-27 11:00:00
Wind direction
100°
Wind speed
09 kts
Lowest cloud amount
scattered clouds
Temperature
10°C
Dew point
7°C
Humidity
81%
Weather condition
n/a

Description

International airport serving western Newfoundland.

Climatology

Humid Continental climate (Köppen climate classification Dfb) - Variable weather patterns and a large seasonal temperature variance. Summers are often warm and humid with frequent thunderstorms and winters can be very cold with frequent snowfall and persistent snow cover.

The separate article climate Newfoundland contains more detail on the climate of Newfoundland and associated weather phenomena.

Runways

Designator Length Width Surface Rops
2/20 1189 46 PEM Yes/Yes
9/27 3048 61 ASP Yes/Yes
Airport map: 
Aerial View: 

Accidents and Serious Incidents at or in the vicinity of CYJT

SKYbrary Partners:

Safety knowledge contributed by: